createdAt,value
2022-12-17T00:00:16.039Z,597.3
2022-12-17T00:01:18.628Z,597.4
2022-12-17T00:02:21.507Z,597.7
2022-12-17T00:03:25.042Z,597.3
2022-12-17T00:04:27.319Z,597.5
2022-12-17T00:05:29.557Z,597.2
2022-12-17T00:06:32.044Z,597.5
2022-12-17T00:07:33.980Z,596.9
2022-12-17T00:08:36.196Z,597
2022-12-17T00:09:38.749Z,596.9
2022-12-17T00:10:40.426Z,597.2
2022-12-17T00:11:42.643Z,596.7
2022-12-17T00:12:44.849Z,596.8
2022-12-17T00:13:47.332Z,596.5
2022-12-17T00:14:49.538Z,596.4
2022-12-17T00:15:52.256Z,597
2022-12-17T00:16:57.433Z,596.4
2022-12-17T00:17:59.985Z,596.4
2022-12-17T00:19:02.204Z,596.1
2022-12-17T00:20:04.137Z,595.7
2022-12-17T00:21:06.622Z,595.7
2022-12-17T00:22:10.259Z,595.5
2022-12-17T00:23:12.454Z,595.6
2022-12-17T00:24:14.995Z,595.8
2022-12-17T00:25:17.248Z,595.4
2022-12-17T00:26:19.178Z,595.1
2022-12-17T00:27:20.553Z,595.5
2022-12-17T00:28:22.752Z,595.1
2022-12-17T00:29:25.250Z,594.7
2022-12-17T00:30:27.734Z,594.8
2022-12-17T00:31:30.589Z,594.8
2022-12-17T00:32:33.156Z,594.8
2022-12-17T00:33:38.121Z,594.7
2022-12-17T00:34:40.477Z,594.1
2022-12-17T00:35:42.996Z,593.9
2022-12-17T00:36:45.480Z,593.8
2022-12-17T00:37:48.088Z,593.9
2022-12-17T00:38:50.316Z,593.6
2022-12-17T00:40:58.752Z,593.6
2022-12-17T00:42:01.229Z,593.9
2022-12-17T00:43:03.711Z,593.8
2022-12-17T00:44:05.920Z,593.9
2022-12-17T00:45:07.823Z,593.8
2022-12-17T00:46:10.871Z,593.5
2022-12-17T00:47:13.599Z,593.8
2022-12-17T00:48:15.916Z,593.3
2022-12-17T00:49:17.840Z,593
2022-12-17T00:50:20.331Z,593
2022-12-17T00:51:22.850Z,592.5
2022-12-17T00:52:24.253Z,592.2
2022-12-17T00:53:26.169Z,591.8
2022-12-17T00:54:28.375Z,591.8
2022-12-17T00:55:30.594Z,591.5
2022-12-17T00:56:33.153Z,591.9
2022-12-17T00:57:35.644Z,591.2
2022-12-17T00:58:38.129Z,591.4
2022-12-17T00:59:40.338Z,591.2
2022-12-17T01:00:43.249Z,591.1
2022-12-17T01:01:46.571Z,591.1
2022-12-17T01:02:49.700Z,590.8
2022-12-17T01:03:54.309Z,590.4
2022-12-17T01:06:01.790Z,590.6
2022-12-17T01:07:04.027Z,590.5
2022-12-17T01:08:06.233Z,590.6
2022-12-17T01:09:08.793Z,590.8
2022-12-17T01:10:12.364Z,590.9
2022-12-17T01:11:14.904Z,590.2
2022-12-17T01:12:16.888Z,590.4
2022-12-17T01:13:19.108Z,590.1
2022-12-17T01:14:21.046Z,590.1
2022-12-17T01:15:23.548Z,590
2022-12-17T01:16:26.132Z,589.2
2022-12-17T01:17:28.661Z,589.4
2022-12-17T01:18:30.591Z,589.3
2022-12-17T01:19:33.121Z,589.3
2022-12-17T01:20:35.358Z,588.9
2022-12-17T01:21:37.848Z,588.8
2022-12-17T01:22:40.333Z,588.9
2022-12-17T01:23:42.565Z,588.8
2022-12-17T01:24:44.766Z,588.4
2022-12-17T01:25:46.754Z,588.5
2022-12-17T01:26:49.298Z,588.4
2022-12-17T01:27:52.425Z,588.2
2022-12-17T01:28:55.337Z,588.2
2022-12-17T01:29:58.301Z,588.3
2022-12-17T01:31:00.573Z,588.1
2022-12-17T01:32:03.550Z,587.8
2022-12-17T01:33:06.087Z,587.6
2022-12-17T01:34:08.281Z,587.4
2022-12-17T01:35:10.823Z,587.3
2022-12-17T01:36:13.371Z,587.3
2022-12-17T01:37:15.857Z,587.4
2022-12-17T01:38:18.086Z,587.5
2022-12-17T01:39:20.622Z,587.2
2022-12-17T01:40:22.837Z,587.8
2022-12-17T01:41:25.312Z,588
2022-12-17T01:42:27.260Z,588.1
2022-12-17T01:43:29.509Z,587.7
2022-12-17T01:44:31.989Z,587.4
2022-12-17T01:45:34.856Z,587.1
2022-12-17T01:46:37.078Z,587.1
2022-12-17T01:47:39.295Z,586.7
2022-12-17T01:48:41.497Z,586.5
2022-12-17T01:49:43.491Z,586.4
2022-12-17T01:50:46.021Z,586.3
2022-12-17T01:51:48.525Z,585.7
2022-12-17T01:52:51.018Z,585.6
2022-12-17T01:53:53.234Z,585.8
2022-12-17T01:54:55.727Z,585.6
2022-12-17T01:55:58.208Z,585.3
2022-12-17T01:57:00.420Z,585.6
2022-12-17T01:58:02.379Z,585.3
2022-12-17T01:59:04.633Z,585.4
2022-12-17T02:00:06.561Z,585.2
2022-12-17T02:01:10.648Z,585
2022-12-17T02:02:13.942Z,585.2
2022-12-17T02:03:17.226Z,585.4
2022-12-17T02:04:19.745Z,585.1
2022-12-17T02:05:22.235Z,584.6
2022-12-17T02:06:24.796Z,584.7
2022-12-17T02:07:27.203Z,584.7
2022-12-17T02:08:29.414Z,584.4
2022-12-17T02:09:31.624Z,584.2
2022-12-17T02:10:34.115Z,584.5
2022-12-17T02:11:35.477Z,585
2022-12-17T02:12:37.392Z,584.5
2022-12-17T02:13:40.412Z,584.3
2022-12-17T02:14:42.386Z,584.4
2022-12-17T02:15:44.596Z,583.9
2022-12-17T02:16:46.669Z,583.9
2022-12-17T02:17:49.206Z,584.1
2022-12-17T02:18:51.446Z,583.9
2022-12-17T02:19:53.925Z,584.1
2022-12-17T02:20:56.410Z,583.9
2022-12-17T02:21:58.676Z,583.8
2022-12-17T02:23:00.869Z,583.9
2022-12-17T02:24:03.395Z,584
2022-12-17T02:25:05.618Z,583.9
2022-12-17T02:26:07.825Z,584
2022-12-17T02:27:09.750Z,583.5
2022-12-17T02:28:12.242Z,583.6
2022-12-17T02:29:14.757Z,583.9
2022-12-17T02:30:17.007Z,584.2
2022-12-17T02:31:19.536Z,584.1
2022-12-17T02:32:22.064Z,584.3
2022-12-17T02:33:24.551Z,584.1
2022-12-17T02:34:26.756Z,584.1
2022-12-17T02:35:28.956Z,584
2022-12-17T02:36:31.433Z,584.3
2022-12-17T02:37:33.987Z,584.1
2022-12-17T02:38:36.196Z,583.8
2022-12-17T02:39:38.678Z,583.9
2022-12-17T02:40:41.170Z,583.8
2022-12-17T02:41:43.665Z,583.5
2022-12-17T02:42:46.154Z,583.1
2022-12-17T02:43:48.649Z,582.9
2022-12-17T02:44:50.583Z,583.2
2022-12-17T02:45:53.811Z,583.4
2022-12-17T02:46:56.335Z,583.1
2022-12-17T02:47:58.841Z,583.2
2022-12-17T02:49:00.483Z,583.1
2022-12-17T02:50:02.685Z,583.1
2022-12-17T02:51:04.890Z,582.9
2022-12-17T02:52:07.088Z,583.2
2022-12-17T02:53:09.354Z,583
2022-12-17T02:54:11.844Z,582.6
2022-12-17T02:55:14.058Z,582.6
2022-12-17T02:56:16.267Z,582.5
2022-12-17T02:57:18.475Z,582.5
2022-12-17T02:58:20.950Z,582.4
2022-12-17T02:59:23.507Z,582.4
2022-12-17T03:00:26.004Z,582
2022-12-17T03:01:29.563Z,582.1
2022-12-17T03:02:32.688Z,582.1
2022-12-17T03:03:37.669Z,581.4
2022-12-17T03:04:40.403Z,581.4
2022-12-17T03:06:47.583Z,581.2
2022-12-17T03:07:50.078Z,580.6
2022-12-17T03:08:52.073Z,580.4
2022-12-17T03:09:54.015Z,580.3
2022-12-17T03:10:56.494Z,580.3
2022-12-17T03:11:58.427Z,580.3
2022-12-17T03:13:00.916Z,580.3
2022-12-17T03:14:04.164Z,580.1
2022-12-17T03:15:06.591Z,580
2022-12-17T03:16:08.840Z,579.8
2022-12-17T03:17:11.760Z,579.7
2022-12-17T03:18:14.298Z,579.5
2022-12-17T03:19:15.923Z,578.9
2022-12-17T03:20:18.420Z,579.5
2022-12-17T03:21:20.619Z,579.3
2022-12-17T03:22:23.105Z,579
2022-12-17T03:23:25.304Z,578.7
2022-12-17T03:24:27.818Z,579
2022-12-17T03:25:30.308Z,579
2022-12-17T03:26:32.787Z,578.9
2022-12-17T03:27:34.714Z,579.1
2022-12-17T03:28:36.954Z,579
2022-12-17T03:29:39.143Z,578.9
2022-12-17T03:31:46.492Z,578.8
2022-12-17T03:32:48.740Z,578.4
2022-12-17T03:33:51.229Z,578.8
2022-12-17T03:34:53.745Z,578.5
2022-12-17T03:35:55.945Z,578.4
2022-12-17T03:36:58.441Z,578.6
2022-12-17T03:38:00.665Z,578.6
2022-12-17T03:39:03.153Z,578.7
2022-12-17T03:40:05.676Z,578.7
2022-12-17T03:41:08.166Z,578.2
2022-12-17T03:42:10.658Z,578.3
2022-12-17T03:43:13.141Z,578.2
2022-12-17T03:44:15.354Z,577.9
2022-12-17T03:45:17.832Z,577.7
2022-12-17T03:46:20.923Z,577.8
2022-12-17T03:47:23.492Z,577.9
2022-12-17T03:48:25.764Z,577.8
2022-12-17T03:49:28.254Z,578.4
2022-12-17T03:50:30.752Z,578.5
2022-12-17T03:51:32.949Z,578.7
2022-12-17T03:52:35.436Z,578.4
2022-12-17T03:53:39.636Z,578
2022-12-17T03:54:42.120Z,578.3
2022-12-17T03:55:44.638Z,578
2022-12-17T03:56:47.126Z,577.7
2022-12-17T03:57:49.604Z,578.1
2022-12-17T03:58:51.528Z,578
2022-12-17T03:59:54.027Z,578.3
2022-12-17T04:00:56.498Z,577.9
2022-12-17T04:01:59.527Z,577.9
2022-12-17T04:03:02.933Z,577.7
2022-12-17T04:04:05.531Z,577.6
2022-12-17T04:05:08.010Z,577.6
2022-12-17T04:06:10.214Z,577.4
2022-12-17T04:07:12.790Z,577.3
2022-12-17T04:08:14.616Z,577.6
2022-12-17T04:09:17.090Z,577.4
2022-12-17T04:10:19.304Z,577.5
2022-12-17T04:11:21.882Z,577.3
2022-12-17T04:12:24.360Z,577
2022-12-17T04:13:27.325Z,577.1
2022-12-17T04:14:29.523Z,576.9
2022-12-17T04:15:32.320Z,577
2022-12-17T04:16:34.533Z,576.8
2022-12-17T04:17:36.722Z,576.8
2022-12-17T04:18:39.246Z,576.6
2022-12-17T04:19:41.519Z,576.5
2022-12-17T04:20:43.996Z,576.5
2022-12-17T04:21:45.913Z,576.1
2022-12-17T04:23:02.243Z,575.8
2022-12-17T04:24:04.779Z,575.7
2022-12-17T04:25:07.009Z,575.7
2022-12-17T04:26:09.211Z,575.3
2022-12-17T04:27:11.977Z,575.8
2022-12-17T04:28:13.606Z,575.3
2022-12-17T04:29:15.819Z,574.9
2022-12-17T04:30:18.321Z,574.8
2022-12-17T04:31:21.445Z,574.7
2022-12-17T04:32:23.466Z,574.6
2022-12-17T04:33:25.677Z,574.8
2022-12-17T04:34:27.889Z,574.5
2022-12-17T04:35:30.447Z,574.7
2022-12-17T04:36:32.654Z,574.6
2022-12-17T04:37:34.879Z,574.4
2022-12-17T04:38:37.062Z,574.2
2022-12-17T04:39:38.998Z,574.4
2022-12-17T04:40:41.203Z,574.1
2022-12-17T04:41:43.683Z,573.5
2022-12-17T04:42:46.209Z,573.7
2022-12-17T04:43:48.683Z,573.9
2022-12-17T04:44:50.889Z,573.1
2022-12-17T04:46:59.225Z,573.3
2022-12-17T04:48:01.430Z,572.7
2022-12-17T04:49:03.919Z,572.9
2022-12-17T04:50:06.472Z,572.5
2022-12-17T04:51:08.750Z,572.7
2022-12-17T04:52:10.950Z,572.5
2022-12-17T04:53:13.439Z,572.6
2022-12-17T04:54:15.921Z,572.3
2022-12-17T04:55:18.109Z,572.1
2022-12-17T04:56:20.610Z,571.9
2022-12-17T04:57:22.259Z,571.7
2022-12-17T04:58:24.506Z,572
2022-12-17T04:59:27.003Z,571.9
2022-12-17T05:00:29.478Z,572.1
2022-12-17T05:01:32.814Z,571.7
2022-12-17T05:03:42.618Z,571.6
2022-12-17T05:04:44.885Z,571.2
2022-12-17T05:05:47.386Z,571.1
2022-12-17T05:06:49.985Z,570.6
2022-12-17T05:07:52.476Z,570.5
2022-12-17T05:08:54.679Z,570.4
2022-12-17T05:09:57.189Z,570.3
2022-12-17T05:10:59.667Z,570.1
2022-12-17T05:12:01.595Z,569.9
2022-12-17T05:13:03.523Z,569.8
2022-12-17T05:14:05.490Z,569.9
2022-12-17T05:15:07.974Z,569.6
2022-12-17T05:16:10.104Z,569.1
2022-12-17T05:17:12.605Z,569.6
2022-12-17T05:18:14.532Z,569.8
2022-12-17T05:19:17.024Z,569.3
2022-12-17T05:20:19.501Z,569.5
2022-12-17T05:21:21.738Z,568.8
2022-12-17T05:22:24.307Z,569.1
2022-12-17T05:23:26.535Z,568.2
2022-12-17T05:24:29.056Z,568.6
2022-12-17T05:25:31.311Z,568.4
2022-12-17T05:26:33.809Z,568.1
2022-12-17T05:27:36.024Z,568
2022-12-17T05:28:38.227Z,567.7
2022-12-17T05:29:40.756Z,567.5
2022-12-17T05:30:42.959Z,567.5
2022-12-17T05:31:45.544Z,567.9
2022-12-17T05:32:48.049Z,567.2
2022-12-17T05:33:50.543Z,567.3
2022-12-17T05:36:01.172Z,567.1
2022-12-17T05:37:03.117Z,566.8
2022-12-17T05:38:05.648Z,566.9
2022-12-17T05:39:07.319Z,566.8
2022-12-17T05:41:14.781Z,566.6
2022-12-17T05:42:17.302Z,566
2022-12-17T05:43:19.503Z,565.9
2022-12-17T05:44:21.697Z,565.8
2022-12-17T05:45:24.221Z,565.7
2022-12-17T05:46:27.238Z,565.8
2022-12-17T05:47:29.770Z,566
2022-12-17T05:48:31.990Z,565.5
2022-12-17T05:49:34.204Z,565.3
2022-12-17T05:50:36.686Z,565.4
2022-12-17T05:51:41.047Z,565.4
2022-12-17T05:52:43.577Z,565.2
2022-12-17T05:53:45.838Z,565.2
2022-12-17T05:54:47.493Z,565.3
2022-12-17T05:55:49.728Z,565.2
2022-12-17T05:56:51.943Z,565
2022-12-17T05:58:59.129Z,564.8
2022-12-17T06:00:01.364Z,564.8
2022-12-17T06:01:03.900Z,564.8
2022-12-17T06:02:06.189Z,564.4
2022-12-17T06:03:09.072Z,564.6
2022-12-17T06:04:12.007Z,564.1
2022-12-17T06:05:14.519Z,564.3
2022-12-17T06:06:16.748Z,563.9
2022-12-17T06:07:19.229Z,564.3
2022-12-17T06:08:21.738Z,563.9
2022-12-17T06:09:24.273Z,563.8
2022-12-17T06:10:26.484Z,563.9
2022-12-17T06:11:28.683Z,563.5
2022-12-17T06:12:31.159Z,563.8
2022-12-17T06:13:35.033Z,563.5
2022-12-17T06:14:37.747Z,563.4
2022-12-17T06:15:39.940Z,563.4
2022-12-17T06:16:42.491Z,562.7
2022-12-17T06:17:44.704Z,563.4
2022-12-17T06:18:46.913Z,562.7
2022-12-17T06:19:49.399Z,562.7
2022-12-17T06:20:51.957Z,562.6
2022-12-17T06:21:54.152Z,562.5
2022-12-17T06:22:56.369Z,562.5
2022-12-17T06:23:58.579Z,561.9
2022-12-17T06:25:00.821Z,562
2022-12-17T06:26:03.305Z,561.7
2022-12-17T06:27:05.510Z,561.6
2022-12-17T06:28:07.694Z,561.6
2022-12-17T06:29:10.186Z,561.3
2022-12-17T06:31:18.039Z,561.4
2022-12-17T06:32:20.566Z,561.2
2022-12-17T06:33:22.788Z,561
2022-12-17T06:34:25.277Z,561
2022-12-17T06:35:27.756Z,560.9
2022-12-17T06:36:29.976Z,560.8
2022-12-17T06:37:32.160Z,560.8
2022-12-17T06:38:34.103Z,560.7
2022-12-17T06:39:36.637Z,560.7
2022-12-17T06:40:38.884Z,561
2022-12-17T06:41:41.362Z,560.8
2022-12-17T06:42:43.595Z,560.5
2022-12-17T06:43:46.072Z,560.3
2022-12-17T06:44:48.006Z,560.2
2022-12-17T06:45:50.500Z,560.2
2022-12-17T06:46:52.613Z,559.5
2022-12-17T06:47:55.236Z,559.2
2022-12-17T06:48:57.477Z,559.7
2022-12-17T06:51:04.669Z,559.5
2022-12-17T06:52:06.885Z,559
2022-12-17T06:53:09.110Z,558.5
2022-12-17T06:54:11.599Z,558.2
2022-12-17T06:55:13.543Z,558.5
2022-12-17T06:56:15.795Z,558
2022-12-17T06:57:18.031Z,557.8
2022-12-17T06:58:20.243Z,557.9
2022-12-17T06:59:22.737Z,557.9
2022-12-17T07:00:25.222Z,556.8
2022-12-17T07:01:28.464Z,557.4
2022-12-17T07:02:32.074Z,557.6
2022-12-17T07:03:35.651Z,557.3
2022-12-17T07:04:38.376Z,557.3
2022-12-17T07:05:40.573Z,556.4
2022-12-17T07:06:42.817Z,556.8
2022-12-17T07:07:45.323Z,556.4
2022-12-17T07:08:47.852Z,556.1
2022-12-17T07:09:49.563Z,556.3
2022-12-17T07:10:54.538Z,555.9
2022-12-17T07:12:02.344Z,556.3
2022-12-17T07:13:04.971Z,556.1
2022-12-17T07:14:07.167Z,555.6
2022-12-17T07:15:09.381Z,555.3
2022-12-17T07:16:12.580Z,555.5
2022-12-17T07:17:15.093Z,555.6
2022-12-17T07:18:17.298Z,555.3
2022-12-17T07:20:24.938Z,555.6
2022-12-17T07:21:27.457Z,554.9
2022-12-17T07:22:29.677Z,554.9
2022-12-17T07:23:31.898Z,555.5
2022-12-17T07:24:34.100Z,555.4
2022-12-17T07:25:36.318Z,555.2
2022-12-17T07:26:38.536Z,555
2022-12-17T07:27:40.545Z,554.9
2022-12-17T07:28:43.048Z,555.1
2022-12-17T07:29:45.582Z,555.5
2022-12-17T07:31:53.604Z,555.4
2022-12-17T07:32:56.222Z,555.1
2022-12-17T07:33:59.228Z,554.6
2022-12-17T07:35:01.455Z,554.9
2022-12-17T07:36:03.708Z,554.6
2022-12-17T07:37:05.921Z,554.9
2022-12-17T07:38:08.136Z,554.7
2022-12-17T07:39:10.342Z,555
2022-12-17T07:40:12.543Z,554.9
2022-12-17T07:41:15.038Z,554.5
2022-12-17T07:42:17.293Z,554
2022-12-17T07:43:19.856Z,553.8
2022-12-17T07:44:21.805Z,553.4
2022-12-17T07:45:24.349Z,553.4
2022-12-17T07:46:26.870Z,553.3
2022-12-17T07:47:28.528Z,552.9
2022-12-17T07:48:30.720Z,552.8
2022-12-17T07:49:32.934Z,552.6
2022-12-17T07:50:34.868Z,552.3
2022-12-17T07:51:37.151Z,552.4
2022-12-17T07:52:39.666Z,552.8
2022-12-17T07:53:42.148Z,552.7
2022-12-17T07:54:44.640Z,552.6
2022-12-17T07:55:47.135Z,552.5
2022-12-17T07:56:49.376Z,552.3
2022-12-17T07:57:51.887Z,552.4
2022-12-17T07:58:54.434Z,552.5
2022-12-17T07:59:59.095Z,552.3
2022-12-17T08:01:01.899Z,552.6
2022-12-17T08:02:04.977Z,552.5
2022-12-17T08:03:08.465Z,552.4
2022-12-17T08:04:11.412Z,552.2
2022-12-17T08:05:13.618Z,552.4
2022-12-17T08:06:15.250Z,552.2
2022-12-17T08:07:17.469Z,552.2
2022-12-17T08:08:19.957Z,552.1
2022-12-17T08:09:22.448Z,552.2
2022-12-17T08:10:24.372Z,552.1
2022-12-17T08:11:26.850Z,552
2022-12-17T08:12:29.413Z,552.2
2022-12-17T08:13:31.922Z,552.2
2022-12-17T08:14:34.211Z,552.2
2022-12-17T08:15:36.713Z,551.8
2022-12-17T08:16:39.149Z,551.8
2022-12-17T08:17:42.355Z,551.7
2022-12-17T08:18:44.834Z,551.4
2022-12-17T08:19:47.072Z,551.5
2022-12-17T08:20:49.308Z,551.3
2022-12-17T08:21:53.009Z,551
2022-12-17T08:22:55.554Z,550.6
2022-12-17T08:23:57.759Z,550.6
2022-12-17T08:25:00.237Z,550
2022-12-17T08:26:02.163Z,550.2
2022-12-17T08:27:04.639Z,549.9
2022-12-17T08:29:12.248Z,549.8
2022-12-17T08:30:13.663Z,549.7
2022-12-17T08:31:16.622Z,549.6
2022-12-17T08:32:18.865Z,549.7
2022-12-17T08:33:21.086Z,549.4
2022-12-17T08:34:23.563Z,549.4
2022-12-17T08:35:25.762Z,549.3
2022-12-17T08:36:27.983Z,549
2022-12-17T08:37:30.163Z,548.7
2022-12-17T08:38:32.620Z,549.1
2022-12-17T08:39:34.816Z,548.8
2022-12-17T08:40:37.302Z,548.6
2022-12-17T08:41:39.781Z,548.4
2022-12-17T08:42:41.706Z,548.7
2022-12-17T08:43:44.201Z,548.3
2022-12-17T08:44:46.703Z,548.5
2022-12-17T08:45:49.267Z,548.2
2022-12-17T08:46:51.797Z,548
2022-12-17T08:47:56.034Z,548.3
2022-12-17T08:49:00.921Z,548.1
2022-12-17T08:50:03.424Z,548
2022-12-17T08:51:05.908Z,548.5
2022-12-17T08:52:08.117Z,548.4
2022-12-17T08:53:10.300Z,548.1
2022-12-17T08:54:12.980Z,547.7
2022-12-17T08:55:15.172Z,547.7
2022-12-17T08:56:17.666Z,547.5
2022-12-17T08:58:25.248Z,548.1
2022-12-17T08:59:27.770Z,547.2
2022-12-17T09:00:30.285Z,546.9
2022-12-17T09:01:33.552Z,547.4
2022-12-17T09:02:36.801Z,547.5
2022-12-17T09:03:42.133Z,547.6
2022-12-17T09:04:44.673Z,547.9
2022-12-17T09:05:46.907Z,547.6
2022-12-17T09:06:49.386Z,547.3
2022-12-17T09:07:51.605Z,547.6
2022-12-17T09:08:53.809Z,547.5
2022-12-17T09:09:56.366Z,547.3
2022-12-17T09:10:58.597Z,547.3
2022-12-17T09:12:01.096Z,547.1
2022-12-17T09:14:08.561Z,546.6
2022-12-17T09:15:11.048Z,546.6
2022-12-17T09:16:13.901Z,546.9
2022-12-17T09:17:16.472Z,546.9
2022-12-17T09:18:18.956Z,547
2022-12-17T09:19:21.453Z,546.1
2022-12-17T09:21:28.358Z,546.2
2022-12-17T09:22:30.382Z,546.2
2022-12-17T09:23:32.569Z,545.7
2022-12-17T09:24:34.788Z,545.3
2022-12-17T09:25:37.316Z,545.5
2022-12-17T09:26:39.820Z,545.8
2022-12-17T09:27:42.305Z,545.4
2022-12-17T09:28:44.973Z,545.5
2022-12-17T09:29:47.181Z,545.3
2022-12-17T09:30:49.800Z,545.2
2022-12-17T09:31:51.800Z,545.2
2022-12-17T09:32:54.058Z,545
2022-12-17T09:33:56.524Z,545
2022-12-17T09:34:58.448Z,544.9
2022-12-17T09:36:00.665Z,545.2
2022-12-17T09:37:02.860Z,544.9
2022-12-17T09:38:04.511Z,544.8
2022-12-17T09:39:07.172Z,545
2022-12-17T09:40:09.077Z,544.4
2022-12-17T09:41:12.532Z,544.4
2022-12-17T09:42:14.455Z,544.6
2022-12-17T09:43:16.404Z,544.6
2022-12-17T09:44:18.351Z,544.4
2022-12-17T09:45:20.870Z,544.2
2022-12-17T09:46:23.981Z,544.7
2022-12-17T09:47:26.570Z,544.4
2022-12-17T09:49:34.121Z,544.7
2022-12-17T09:50:36.352Z,544.4
2022-12-17T09:51:38.863Z,544.2
2022-12-17T09:52:41.111Z,544
2022-12-17T09:53:43.349Z,544.2
2022-12-17T09:54:45.622Z,544.1
2022-12-17T09:55:47.837Z,544
2022-12-17T09:56:50.082Z,544.2
2022-12-17T09:57:52.560Z,544.5
2022-12-17T09:58:55.044Z,544.2
2022-12-17T09:59:57.580Z,544
2022-12-17T10:02:05.898Z,543.3
2022-12-17T10:03:09.146Z,543.4
2022-12-17T10:04:12.499Z,543.2
2022-12-17T10:05:14.757Z,543
2022-12-17T10:07:22.216Z,543.3
2022-12-17T10:08:24.731Z,543.1
2022-12-17T10:09:27.236Z,543.2
2022-12-17T10:10:29.192Z,543
2022-12-17T10:12:36.507Z,543.2
2022-12-17T10:13:40.516Z,543
2022-12-17T10:14:42.876Z,543.1
2022-12-17T10:15:45.385Z,543.1
2022-12-17T10:16:47.583Z,543.2
2022-12-17T10:17:49.786Z,543.4
2022-12-17T10:18:52.945Z,543.3
2022-12-17T10:19:59.885Z,543.8
2022-12-17T10:21:02.487Z,543.7
2022-12-17T10:22:04.411Z,543.5
2022-12-17T10:23:06.346Z,543.6
2022-12-17T10:24:08.558Z,543.7
2022-12-17T10:25:10.751Z,543.8
2022-12-17T10:26:13.233Z,543.7
2022-12-17T10:27:15.718Z,544
2022-12-17T10:28:18.234Z,544.3
2022-12-17T10:29:20.721Z,543.7
2022-12-17T10:30:23.199Z,543.9
2022-12-17T10:31:26.097Z,544
2022-12-17T10:32:28.612Z,543.9
2022-12-17T10:33:30.810Z,543.7
2022-12-17T10:34:33.052Z,543.2
2022-12-17T10:35:34.721Z,543.2
2022-12-17T10:36:37.018Z,543.1
2022-12-17T10:37:39.506Z,542.9
2022-12-17T10:38:41.455Z,542.8
2022-12-17T10:39:43.950Z,542.2
2022-12-17T10:40:46.154Z,542.3
2022-12-17T10:41:48.368Z,541.8
2022-12-17T10:42:50.859Z,541.9
2022-12-17T10:43:53.406Z,541.7
2022-12-17T10:44:55.608Z,542.2
2022-12-17T10:45:58.310Z,541.1
2022-12-17T10:47:00.522Z,541.6
2022-12-17T10:48:03.021Z,541.4
2022-12-17T10:50:10.228Z,541.5
2022-12-17T10:51:12.465Z,541.5
2022-12-17T10:52:15.003Z,541.6
2022-12-17T10:53:17.495Z,541.7
2022-12-17T10:54:19.971Z,542.1
2022-12-17T10:55:22.458Z,541.7
2022-12-17T10:56:24.937Z,541.5
2022-12-17T10:57:27.435Z,541.4
2022-12-17T10:58:29.927Z,540.9
2022-12-17T10:59:32.453Z,541
2022-12-17T11:00:34.657Z,541.1
2022-12-17T11:01:37.619Z,540.9
2022-12-17T11:02:41.605Z,540.8
2022-12-17T11:03:44.896Z,541.3
2022-12-17T11:04:47.141Z,540.9
2022-12-17T11:05:49.378Z,541.2
2022-12-17T11:06:51.565Z,541.8
2022-12-17T11:07:54.082Z,541.1
2022-12-17T11:08:56.629Z,541
2022-12-17T11:11:04.803Z,540.6
2022-12-17T11:12:09.224Z,541
2022-12-17T11:13:11.703Z,540.7
2022-12-17T11:14:13.915Z,540.7
2022-12-17T11:15:16.438Z,540.6
2022-12-17T11:16:18.924Z,541
2022-12-17T11:17:21.479Z,541.1
2022-12-17T11:18:23.966Z,541.1
2022-12-17T11:19:25.870Z,541.3
2022-12-17T11:20:28.087Z,541.2
2022-12-17T11:21:30.599Z,541
2022-12-17T11:22:33.101Z,541.2
2022-12-17T11:23:37.904Z,540.9
2022-12-17T11:24:40.304Z,541.3
2022-12-17T11:25:42.786Z,540.9
2022-12-17T11:26:44.988Z,541.2
2022-12-17T11:27:47.171Z,541.1
2022-12-17T11:28:49.645Z,541.5
2022-12-17T11:29:51.847Z,541.3
2022-12-17T11:30:54.393Z,541
2022-12-17T11:31:56.616Z,541.1
2022-12-17T11:32:59.105Z,541.4
2022-12-17T11:34:01.041Z,541.1
2022-12-17T11:35:03.234Z,541.4
2022-12-17T11:36:05.722Z,541.6
2022-12-17T11:37:08.240Z,541.6
2022-12-17T11:38:10.735Z,541.7
2022-12-17T11:39:13.369Z,541.5
2022-12-17T11:40:16.032Z,541.3
2022-12-17T11:41:18.537Z,541.5
2022-12-17T11:42:21.007Z,541.5
2022-12-17T11:43:22.964Z,541.5
2022-12-17T11:44:25.172Z,541.4
2022-12-17T11:45:27.667Z,541.3
2022-12-17T11:46:30.636Z,541.6
2022-12-17T11:47:32.845Z,541.4
2022-12-17T11:48:36.530Z,541.9
2022-12-17T11:49:39.149Z,542.1
2022-12-17T11:50:41.355Z,542
2022-12-17T11:51:43.577Z,541.8
2022-12-17T11:52:46.085Z,541.6
2022-12-17T11:53:48.578Z,541.7
2022-12-17T11:54:51.110Z,541.4
2022-12-17T11:55:53.316Z,541.1
2022-12-17T11:56:55.536Z,541.3
2022-12-17T11:57:58.025Z,541.1
2022-12-17T11:59:00.526Z,541
2022-12-17T12:01:07.790Z,541.3
2022-12-17T12:02:10.038Z,541.2
2022-12-17T12:03:13.452Z,541.2
2022-12-17T12:04:16.506Z,540.7
2022-12-17T12:05:19.009Z,541
2022-12-17T12:06:21.494Z,541.4
2022-12-17T12:07:23.701Z,540.9
2022-12-17T12:08:26.250Z,541
2022-12-17T12:09:28.787Z,540.9
2022-12-17T12:10:31.385Z,541
2022-12-17T12:11:34.086Z,540.7
2022-12-17T12:12:36.571Z,540.4
2022-12-17T12:13:39.051Z,540.6
2022-12-17T12:14:41.530Z,540.3
2022-12-17T12:15:44.145Z,540.4
2022-12-17T12:16:47.112Z,540.6
2022-12-17T12:17:49.683Z,540.3
2022-12-17T12:18:52.174Z,540.2
2022-12-17T12:19:54.653Z,540.5
2022-12-17T12:20:57.139Z,540.5
2022-12-17T12:21:59.620Z,540.7
2022-12-17T12:23:01.828Z,540.5
2022-12-17T12:24:04.339Z,540.7
2022-12-17T12:25:06.272Z,540.9
2022-12-17T12:26:08.516Z,541
2022-12-17T12:27:10.718Z,540.8
2022-12-17T12:28:13.202Z,540.8
2022-12-17T12:29:15.701Z,540.8
2022-12-17T12:30:17.892Z,541
2022-12-17T12:31:20.202Z,540.9
2022-12-17T12:32:22.722Z,541
2022-12-17T12:33:25.240Z,540.6
2022-12-17T12:34:27.446Z,540.8
2022-12-17T12:35:29.929Z,540.6
2022-12-17T12:36:32.407Z,541
2022-12-17T12:37:34.908Z,540.9
2022-12-17T12:39:43.185Z,541
2022-12-17T12:40:45.116Z,541.1
2022-12-17T12:41:47.712Z,540.6
2022-12-17T12:42:49.642Z,540.7
2022-12-17T12:43:52.129Z,540.4
2022-12-17T12:44:54.340Z,540.5
2022-12-17T12:45:58.050Z,540.4
2022-12-17T12:47:00.580Z,540.5
2022-12-17T12:48:03.071Z,540.7
2022-12-17T12:49:05.334Z,540.6
2022-12-17T12:50:07.824Z,540.7
2022-12-17T12:51:09.763Z,540.2
2022-12-17T12:52:12.788Z,540.4
2022-12-17T12:53:15.277Z,540.5
2022-12-17T12:54:17.750Z,540.2
2022-12-17T12:55:19.997Z,540.5
2022-12-17T12:56:22.192Z,540.6
2022-12-17T12:57:26.357Z,540.6
2022-12-17T12:58:31.087Z,540.3
2022-12-17T12:59:33.271Z,540.4
2022-12-17T13:00:35.541Z,540.6
2022-12-17T13:01:39.032Z,540.2
2022-12-17T13:02:42.316Z,540.3
2022-12-17T13:03:45.385Z,540.3
2022-12-17T13:04:47.946Z,540
2022-12-17T13:05:50.165Z,539.9
2022-12-17T13:06:52.668Z,540.2
2022-12-17T13:07:55.165Z,540.3
2022-12-17T13:08:57.758Z,540.4
2022-12-17T13:10:00.256Z,540.2
2022-12-17T13:11:02.192Z,540.3
2022-12-17T13:12:04.777Z,540.3
2022-12-17T13:13:07.328Z,540
2022-12-17T13:14:09.556Z,539.7
2022-12-17T13:15:12.846Z,540
2022-12-17T13:16:15.339Z,540
2022-12-17T13:17:17.843Z,539.7
2022-12-17T13:18:20.331Z,539.8
2022-12-17T13:19:22.542Z,539.6
2022-12-17T13:20:25.101Z,539.6
2022-12-17T13:21:27.597Z,539.4
2022-12-17T13:22:29.853Z,539.5
2022-12-17T13:23:32.332Z,539.2
2022-12-17T13:24:34.541Z,539.4
2022-12-17T13:25:36.170Z,539.6
2022-12-17T13:26:38.406Z,539.4
2022-12-17T13:27:40.609Z,539.4
2022-12-17T13:28:43.044Z,539.3
2022-12-17T13:29:45.738Z,539.2
2022-12-17T13:30:47.974Z,539.1
2022-12-17T13:31:50.828Z,539.1
2022-12-17T13:32:53.338Z,539.1
2022-12-17T13:33:55.817Z,538.8
2022-12-17T13:34:58.919Z,538.5
2022-12-17T13:36:01.436Z,538.4
2022-12-17T13:37:03.927Z,538.2
2022-12-17T13:38:05.861Z,537.9
2022-12-17T13:39:08.341Z,537.8
2022-12-17T13:40:10.822Z,537.6
2022-12-17T13:41:13.301Z,537.4
2022-12-17T13:42:15.263Z,537.4
2022-12-17T13:43:17.478Z,537.7
2022-12-17T13:44:19.713Z,537.5
2022-12-17T13:45:21.647Z,537.5
2022-12-17T13:46:24.707Z,537.9
2022-12-17T13:47:27.013Z,537.3
2022-12-17T13:48:29.537Z,538.1
2022-12-17T13:49:31.734Z,537.4
2022-12-17T13:50:38.263Z,538.1
2022-12-17T13:51:40.779Z,537.2
2022-12-17T13:52:43.291Z,537.4
2022-12-17T13:53:45.773Z,537.1
2022-12-17T13:54:48.014Z,537.1
2022-12-17T13:55:50.501Z,536.7
2022-12-17T13:56:52.411Z,536.5